Terminal Aerodrome Forecast
Issued by NWS

Home | Current Version | Previous Version | Text Only | Print | Product List | Glossary On
Versions: 1 2 3 4 5 6 7 8 9 10 11 12 13 14 15 16
641
FTUS42 KTBW 240550
TAFRSW
TAF
KRSW 240550Z 2406/2506 19006KT P6SM FEW030 BKN250
     FM241400 21016G23KT P6SM VCTS SCT025CB OVC050
     FM241800 24022G30KT 6SM -RA VCTS SCT030CB OVC050
     FM250100 21011KT 6SM -RA VCTS SCT015CB BKN035 OVC060=

USA.gov is the U.S. government's official web portal to all federal, state and local government web resources and services.